Flugplatz Langeoog

Für EDWL sind keine METAR/TAF Berichte vorhanden.
Es werden die Flugwettermeldungen vom Flugplatz Wittmundhafen Airport in 24 km Entfernung angezeigt.

Bericht für ETNT

vom 23.02. um 23:20 UTC

Wind 15 kt aus 280°

Sichtweite 10 km oder mehr

gering bewölkt in 2000 ft

aufgebrochene Bewölkung in 4000 ft

Temperatur 6.0°C

Taupunkt 2.0°C

Luftfeuchtigkeit 75%

Luftdruck 1017 hPa

ETNT 232320Z 28015KT 9999 FEW020 BKN040 06/02 Q1017 BLU

Prognose für ETNT

vom 23.02. um 00:00 UTC

Zwischen 00:00 UTC und 00:00 UTC

Wind 12 kt aus 270°

Sichtweite 10 km oder mehr

keine signifikanten Wettererscheinungen

aufgelockert bewölkt in 2000 ft

aufgebrochene Bewölkung in 3000 ft


Zwischen 00:00 UTC und 00:00 UTC mit einer Wahrscheinlichkeit von 30%

Wind 20 kt aus 290° in Böen 30 kt

Sichtweite 5000 m

schwacher Regenschauer

aufgebrochene Bewölkung in 1500 ft

aufgebrochene Bewölkung in 2000 ft

TAF ETNT 232300Z 2400/2409 27012KT 9999 NSW SCT020 BKN030 PROB30 2400/2409 29020G30KT 5000 -SHRA BKN015 BKN020 BY ETGL
Impressum